»·PEaware :: ASA134 KSEA-KOAK

ASA134 :: KSEA-KOAK

FLIGHT INFORMATION

Flight Status: Arrived
Operator:
Alaska Airlines
More flights by this operator :: More flights under this callsign
Pilot: Steve F. (26981)
Aircraft: BOEING 737-800
(B738)
More flights by this aircraft type
Origin: KSEA Seattle-Tacoma Intl
United States
Destination: KOAK Metro Oakland Intl
United States
More flights between these airports :: More routes between these airports
Route: HAROB6 HISKU Q5 HUPTU SPAMY WNDSR2
File this flight plan on PilotEdge
Remarks:
Altitude:
(Current/Filed)
39,000ft
Speed:
(Current/Filed)
430kts
Departed: 14-Feb-21 11:09 AM
Arrived: 14-Feb-21 12:34 PM
Distance/Time
Traveled:
584nm/1:25
Distance/Time
To Go:
Arrived

Flight Plot

Page will automatically refresh every two minutes.

Flight plan parsing failed; only flown route is shown


Map Options




Map Legend


Flown Route
Filed Route
Departure Airport
Arrival Airport
Navaid (VOR, NDB)
Fix

Horizontal Profiles

Position Reports

Time Latitude Longitude Heading Altitude Ground
Speed
14-Feb-21 10:42 47.449081 -122.302231 215 440ft 0kts
14-Feb-21 10:43 47.449081 -122.302231 215 440ft 0kts
14-Feb-21 10:44 47.449081 -122.302231 215 440ft 0kts
14-Feb-21 10:45 47.449081 -122.302231 215 440ft 0kts
14-Feb-21 10:46 47.449081 -122.302231 215 441ft 0kts
14-Feb-21 10:47 47.449081 -122.302231 215 441ft 0kts
14-Feb-21 10:48 47.449081 -122.302231 215 441ft 0kts
14-Feb-21 10:49 47.449081 -122.302231 215 441ft 0kts
14-Feb-21 10:50 47.449081 -122.302231 215 441ft 0kts
14-Feb-21 10:51 47.449081 -122.302231 215 441ft 0kts
14-Feb-21 10:52 47.449081 -122.302231 215 441ft 0kts
14-Feb-21 10:53 47.449081 -122.302231 215 441ft 0kts
14-Feb-21 10:54 47.449081 -122.302231 215 441ft 0kts
14-Feb-21 10:55 47.449081 -122.302231 215 441ft 0kts
14-Feb-21 10:56 47.449081 -122.302231 215 441ft 0kts
14-Feb-21 10:57 47.449081 -122.302231 215 441ft 0kts
14-Feb-21 10:58 47.449368 -122.301626 259 441ft 2kts
14-Feb-21 10:59 47.449376 -122.301335 274 441ft 0kts
14-Feb-21 11:00 47.449376 -122.301337 274 441ft 0kts
14-Feb-21 11:01 47.449377 -122.301340 274 441ft 0kts
14-Feb-21 11:02 47.449457 -122.301511 315 441ft 5kts
14-Feb-21 11:03 47.451642 -122.306210 1 441ft 18kts
14-Feb-21 11:04 47.457815 -122.306255 2 441ft 23kts
14-Feb-21 11:05 47.463320 -122.306240 325 441ft 4kts
14-Feb-21 11:06 47.463408 -122.306381 301 441ft 4kts
14-Feb-21 11:07 47.462914 -122.307738 180 441ft 13kts
14-Feb-21 11:08 47.428657 -122.308736 179 1433ft 187kts
14-Feb-21 11:09 47.368301 -122.309259 176 3318ft 245kts
14-Feb-21 11:10 47.311805 -122.354003 246 6331ft 254kts
14-Feb-21 11:11 47.308898 -122.458930 266 9322ft 268kts
14-Feb-21 11:12 47.310515 -122.572885 272 11861ft 298kts
14-Feb-21 11:13 47.314212 -122.707325 273 13802ft 343kts
14-Feb-21 11:14 47.295313 -122.846272 253 16788ft 357kts
14-Feb-21 11:15 47.258346 -122.984877 253 19539ft 365kts
14-Feb-21 11:16 47.187172 -123.100963 229 21881ft 402kts
14-Feb-21 11:17 47.092820 -123.197804 213 23863ft 440kts
14-Feb-21 11:18 46.960939 -123.207007 186 25349ft 502kts
14-Feb-21 11:19 46.819170 -123.190317 186 26585ft 519kts
14-Feb-21 11:20 46.672901 -123.173900 187 27751ft 533kts
14-Feb-21 11:21 46.522987 -123.157365 187 28909ft 543kts
14-Feb-21 11:22 46.371670 -123.140926 188 30353ft 546kts
14-Feb-21 11:23 46.220887 -123.124613 188 31816ft 544kts
14-Feb-21 11:24 46.068942 -123.108173 189 33083ft 546kts
14-Feb-21 11:25 45.917883 -123.092014 188 34606ft 539kts
14-Feb-21 11:26 45.768757 -123.076079 187 35883ft 535kts
14-Feb-21 11:27 45.620690 -123.060394 187 37068ft 531kts
14-Feb-21 11:28 45.473869 -123.044907 186 38216ft 526kts
14-Feb-21 11:29 45.328336 -123.029626 186 38997ft 526kts
14-Feb-21 11:30 45.182355 -123.014381 186 38999ft 522kts
14-Feb-21 11:31 45.037292 -122.999316 186 38995ft 523kts
14-Feb-21 11:32 44.892242 -122.984329 186 38990ft 522kts
14-Feb-21 11:33 44.746888 -122.969349 186 38988ft 523kts
14-Feb-21 11:34 44.601972 -122.954544 186 38985ft 523kts
14-Feb-21 11:35 44.456821 -122.941469 189 38985ft 518kts
14-Feb-21 11:36 44.312913 -122.937990 190 38983ft 518kts
14-Feb-21 11:37 44.168725 -122.933896 190 38973ft 518kts
14-Feb-21 11:38 44.024408 -122.929557 190 38975ft 518kts
14-Feb-21 11:39 43.879564 -122.925177 189 38981ft 520kts
14-Feb-21 11:40 43.735186 -122.920818 189 38992ft 520kts
14-Feb-21 11:42 43.590538 -122.916469 189 39006ft 519kts
14-Feb-21 11:43 43.445768 -122.912137 189 39017ft 519kts
14-Feb-21 11:44 43.301200 -122.907831 189 39024ft 521kts
14-Feb-21 11:45 43.155895 -122.903523 189 39027ft 521kts
14-Feb-21 11:46 43.010667 -122.899237 189 39026ft 521kts
14-Feb-21 11:47 42.866104 -122.894992 189 39027ft 521kts
14-Feb-21 11:48 42.720363 -122.890721 189 39033ft 523kts
14-Feb-21 11:49 42.575214 -122.886501 189 39050ft 523kts
14-Feb-21 11:50 42.429699 -122.882300 189 39073ft 522kts
14-Feb-21 11:51 42.283958 -122.878135 189 39078ft 524kts
14-Feb-21 11:52 42.137907 -122.873974 189 39075ft 524kts
14-Feb-21 11:53 41.992015 -122.869813 189 39080ft 524kts
14-Feb-21 11:54 41.846374 -122.865693 189 39093ft 525kts
14-Feb-21 11:55 41.700317 -122.861578 189 39101ft 524kts
14-Feb-21 11:55 41.578354 -122.858148 189 39100ft 524kts
14-Feb-21 11:57 41.407946 -122.853394 189 39097ft 524kts
14-Feb-21 11:58 41.262231 -122.847263 187 39086ft 527kts
14-Feb-21 11:58 41.139788 -122.839774 187 39075ft 527kts
14-Feb-21 12:00 40.968855 -122.829544 187 39068ft 526kts
14-Feb-21 12:01 40.822939 -122.820868 187 39059ft 526kts
14-Feb-21 12:01 40.700492 -122.813634 187 39049ft 526kts
14-Feb-21 12:02 40.554397 -122.805049 187 39041ft 526kts
14-Feb-21 12:03 40.407872 -122.796477 187 39048ft 526kts
14-Feb-21 12:05 40.236640 -122.786509 187 36999ft 528kts
14-Feb-21 12:05 40.113780 -122.779386 186 35248ft 531kts
14-Feb-21 12:06 39.965864 -122.770872 186 33152ft 533kts
14-Feb-21 12:07 39.816913 -122.762286 185 31047ft 536kts
14-Feb-21 12:08 39.667602 -122.753713 184 29234ft 539kts
14-Feb-21 12:09 39.517146 -122.741932 177 27732ft 547kts
14-Feb-21 12:10 39.371612 -122.678906 160 26237ft 552kts
14-Feb-21 12:11 39.235033 -122.608781 163 25027ft 502kts
14-Feb-21 12:12 39.103788 -122.577052 181 23213ft 470kts
14-Feb-21 12:13 38.974945 -122.552948 173 21166ft 463kts
14-Feb-21 12:14 38.850573 -122.520875 174 19172ft 450kts
14-Feb-21 12:15 38.729681 -122.490664 174 17367ft 434kts
14-Feb-21 12:16 38.613509 -122.467019 179 16025ft 406kts
14-Feb-21 12:17 38.505195 -122.451542 178 15020ft 378kts
14-Feb-21 12:18 38.403645 -122.436304 178 13688ft 360kts
14-Feb-21 12:19 38.305650 -122.421492 177 12192ft 350kts
14-Feb-21 12:20 38.210698 -122.407038 176 10901ft 334kts
14-Feb-21 12:21 38.120251 -122.393183 175 9578ft 321kts
14-Feb-21 12:22 38.032664 -122.378910 168 7636ft 316kts
14-Feb-21 12:23 37.961351 -122.323564 141 6817ft 293kts
14-Feb-21 12:24 37.896113 -122.259813 142 6037ft 294kts
14-Feb-21 12:25 37.832741 -122.199329 143 5177ft 274kts
14-Feb-21 12:26 37.777990 -122.137637 129 4464ft 251kts
14-Feb-21 12:27 37.737493 -122.075636 129 4121ft 207kts
14-Feb-21 12:28 37.691962 -122.055359 216 2859ft 186kts
14-Feb-21 12:29 37.661546 -122.100120 255 1909ft 157kts
14-Feb-21 12:30 37.666270 -122.150929 290 1139ft 146kts
14-Feb-21 12:31 37.688450 -122.194632 309 397ft 154kts
14-Feb-21 12:32 37.711237 -122.228869 310 14ft 51kts
14-Feb-21 12:33 37.714836 -122.231725 5 14ft 9kts
14-Feb-21 12:34 37.711067 -122.225039 130 14ft 27kts
14-Feb-21 12:35 37.706961 -122.218145 54 14ft 14kts
14-Feb-21 12:36 37.711614 -122.215260 338 14ft 8kts
14-Feb-21 12:37 37.711864 -122.215531 311 14ft 0kts

Navigation Log

Ident Type
Flight plan parsing failed, navigation log unavailable